sensor_id;sensor_type;location;lat;lon;timestamp;temperature;humidity
35894;DHT22;21994;48.204;16.516;2022-07-11T00:02:14;16.20;96.00
35894;DHT22;21994;48.204;16.516;2022-07-11T00:04:41;16.20;96.00
35894;DHT22;21994;48.204;16.516;2022-07-11T00:07:14;16.20;95.80
35894;DHT22;21994;48.204;16.516;2022-07-11T00:09:41;16.20;95.90
35894;DHT22;21994;48.204;16.516;2022-07-11T00:12:09;16.30;95.60
35894;DHT22;21994;48.204;16.516;2022-07-11T00:14:36;16.40;95.50
35894;DHT22;21994;48.204;16.516;2022-07-11T00:17:08;16.30;95.20
35894;DHT22;21994;48.204;16.516;2022-07-11T00:19:35;16.30;95.60
35894;DHT22;21994;48.204;16.516;2022-07-11T00:22:02;16.30;95.60
35894;DHT22;21994;48.204;16.516;2022-07-11T00:24:29;16.30;95.70
35894;DHT22;21994;48.204;16.516;2022-07-11T00:26:55;16.20;96.00
35894;DHT22;21994;48.204;16.516;2022-07-11T00:29:21;16.30;96.10
35894;DHT22;21994;48.204;16.516;2022-07-11T00:31:47;16.30;95.60
35894;DHT22;21994;48.204;16.516;2022-07-11T00:34:13;16.30;95.70
35894;DHT22;21994;48.204;16.516;2022-07-11T00:36:40;16.20;95.60
35894;DHT22;21994;48.204;16.516;2022-07-11T00:39:06;16.30;95.50
35894;DHT22;21994;48.204;16.516;2022-07-11T00:41:32;16.20;95.70
35894;DHT22;21994;48.204;16.516;2022-07-11T00:43:59;16.20;95.90
35894;DHT22;21994;48.204;16.516;2022-07-11T00:46:26;16.20;95.70
35894;DHT22;21994;48.204;16.516;2022-07-11T00:48:54;16.30;95.40
35894;DHT22;21994;48.204;16.516;2022-07-11T00:51:21;16.30;95.30
35894;DHT22;21994;48.204;16.516;2022-07-11T00:53:49;16.30;95.80
35894;DHT22;21994;48.204;16.516;2022-07-11T00:56:24;16.30;95.70
35894;DHT22;21994;48.204;16.516;2022-07-11T00:58:55;16.30;95.60
35894;DHT22;21994;48.204;16.516;2022-07-11T01:01:22;16.20;95.70
35894;DHT22;21994;48.204;16.516;2022-07-11T01:03:48;16.20;95.90
35894;DHT22;21994;48.204;16.516;2022-07-11T01:06:14;16.20;96.20
35894;DHT22;21994;48.204;16.516;2022-07-11T01:08:40;16.20;95.90
35894;DHT22;21994;48.204;16.516;2022-07-11T01:11:11;16.10;96.10
35894;DHT22;21994;48.204;16.516;2022-07-11T01:13:45;16.20;96.10
35894;DHT22;21994;48.204;16.516;2022-07-11T01:16:12;16.20;96.10
35894;DHT22;21994;48.204;16.516;2022-07-11T01:18:51;16.20;95.80
35894;DHT22;21994;48.204;16.516;2022-07-11T01:21:35;16.10;96.20
35894;DHT22;21994;48.204;16.516;2022-07-11T01:24:06;16.10;96.30
35894;DHT22;21994;48.204;16.516;2022-07-11T01:26:32;15.90;96.20
35894;DHT22;21994;48.204;16.516;2022-07-11T01:29:13;15.90;96.80
35894;DHT22;21994;48.204;16.516;2022-07-11T01:31:43;15.90;96.30
35894;DHT22;21994;48.204;16.516;2022-07-11T01:34:10;15.90;96.90
35894;DHT22;21994;48.204;16.516;2022-07-11T01:36:36;15.80;97.10
35894;DHT22;21994;48.204;16.516;2022-07-11T01:39:03;15.80;96.60
35894;DHT22;21994;48.204;16.516;2022-07-11T01:41:29;15.90;96.50
35894;DHT22;21994;48.204;16.516;2022-07-11T01:43:55;15.80;96.60
35894;DHT22;21994;48.204;16.516;2022-07-11T01:46:21;15.80;96.70
35894;DHT22;21994;48.204;16.516;2022-07-11T01:48:47;15.70;96.80
35894;DHT22;21994;48.204;16.516;2022-07-11T01:51:13;15.80;96.80
35894;DHT22;21994;48.204;16.516;2022-07-11T01:53:39;15.80;96.80
35894;DHT22;21994;48.204;16.516;2022-07-11T01:56:05;15.80;97.10
35894;DHT22;21994;48.204;16.516;2022-07-11T01:58:31;15.80;97.20
35894;DHT22;21994;48.204;16.516;2022-07-11T02:00:58;15.70;96.90
35894;DHT22;21994;48.204;16.516;2022-07-11T02:03:24;15.70;97.20
35894;DHT22;21994;48.204;16.516;2022-07-11T02:05:50;15.70;97.30
35894;DHT22;21994;48.204;16.516;2022-07-11T02:08:16;15.70;97.60
35894;DHT22;21994;48.204;16.516;2022-07-11T02:10:46;15.60;97.60
35894;DHT22;21994;48.204;16.516;2022-07-11T02:13:23;15.60;97.90
35894;DHT22;21994;48.204;16.516;2022-07-11T02:15:50;15.50;97.70
35894;DHT22;21994;48.204;16.516;2022-07-11T02:18:17;15.50;97.90
35894;DHT22;21994;48.204;16.516;2022-07-11T02:20:44;15.50;97.90
35894;DHT22;21994;48.204;16.516;2022-07-11T02:23:12;15.50;97.70
35894;DHT22;21994;48.204;16.516;2022-07-11T02:25:38;15.50;98.00
35894;DHT22;21994;48.204;16.516;2022-07-11T02:28:05;15.50;98.50
35894;DHT22;21994;48.204;16.516;2022-07-11T02:30:34;15.70;97.70
35894;DHT22;21994;48.204;16.516;2022-07-11T02:33:00;15.50;97.80
35894;DHT22;21994;48.204;16.516;2022-07-11T02:35:27;15.50;98.20
35894;DHT22;21994;48.204;16.516;2022-07-11T02:37:53;15.50;98.30
35894;DHT22;21994;48.204;16.516;2022-07-11T02:40:19;15.50;98.00
35894;DHT22;21994;48.204;16.516;2022-07-11T02:42:44;15.50;98.10
35894;DHT22;21994;48.204;16.516;2022-07-11T02:45:11;15.50;98.50
35894;DHT22;21994;48.204;16.516;2022-07-11T02:47:38;15.40;98.40
35894;DHT22;21994;48.204;16.516;2022-07-11T02:50:07;15.40;98.60
35894;DHT22;21994;48.204;16.516;2022-07-11T02:52:35;15.50;98.80
35894;DHT22;21994;48.204;16.516;2022-07-11T02:55:02;15.50;98.30
35894;DHT22;21994;48.204;16.516;2022-07-11T02:57:28;15.60;98.00
35894;DHT22;21994;48.204;16.516;2022-07-11T02:59:54;15.60;98.50
35894;DHT22;21994;48.204;16.516;2022-07-11T03:02:20;15.70;97.90
35894;DHT22;21994;48.204;16.516;2022-07-11T03:04:46;15.60;98.20
35894;DHT22;21994;48.204;16.516;2022-07-11T03:07:12;15.70;98.10
35894;DHT22;21994;48.204;16.516;2022-07-11T03:09:38;15.70;97.90
35894;DHT22;21994;48.204;16.516;2022-07-11T03:12:04;15.70;98.30
35894;DHT22;21994;48.204;16.516;2022-07-11T03:14:30;15.70;99.00
35894;DHT22;21994;48.204;16.516;2022-07-11T03:16:56;15.60;98.80
35894;DHT22;21994;48.204;16.516;2022-07-11T03:19:22;15.70;99.10
35894;DHT22;21994;48.204;16.516;2022-07-11T03:21:48;15.60;99.70
35894;DHT22;21994;48.204;16.516;2022-07-11T03:24:14;15.50;99.90
35894;DHT22;21994;48.204;16.516;2022-07-11T03:26:40;15.40;99.90
35894;DHT22;21994;48.204;16.516;2022-07-11T03:29:06;15.30;99.90
35894;DHT22;21994;48.204;16.516;2022-07-11T03:31:34;15.20;99.90
35894;DHT22;21994;48.204;16.516;2022-07-11T03:34:00;15.20;99.90
35894;DHT22;21994;48.204;16.516;2022-07-11T03:36:26;15.20;99.90
35894;DHT22;21994;48.204;16.516;2022-07-11T03:38:53;15.20;99.90
35894;DHT22;21994;48.204;16.516;2022-07-11T03:41:18;15.20;99.90
35894;DHT22;21994;48.204;16.516;2022-07-11T03:43:44;15.10;99.90
35894;DHT22;21994;48.204;16.516;2022-07-11T03:46:10;15.20;99.90
35894;DHT22;21994;48.204;16.516;2022-07-11T03:48:36;15.20;99.90
35894;DHT22;21994;48.204;16.516;2022-07-11T03:51:02;15.20;99.90
35894;DHT22;21994;48.204;16.516;2022-07-11T03:53:28;15.20;99.90
35894;DHT22;21994;48.204;16.516;2022-07-11T03:55:54;15.20;99.90
35894;DHT22;21994;48.204;16.516;2022-07-11T03:58:19;15.30;99.90
35894;DHT22;21994;48.204;16.516;2022-07-11T04:00:46;15.30;99.90
35894;DHT22;21994;48.204;16.516;2022-07-11T04:03:12;15.20;99.90
35894;DHT22;21994;48.204;16.516;2022-07-11T04:05:40;15.20;99.90
35894;DHT22;21994;48.204;16.516;2022-07-11T04:08:06;15.30;99.90
35894;DHT22;21994;48.204;16.516;2022-07-11T04:10:32;15.30;99.90
35894;DHT22;21994;48.204;16.516;2022-07-11T04:12:58;15.30;99.90
35894;DHT22;21994;48.204;16.516;2022-07-11T04:15:24;15.30;99.90
35894;DHT22;21994;48.204;16.516;2022-07-11T04:17:50;15.20;99.90
35894;DHT22;21994;48.204;16.516;2022-07-11T04:20:16;15.20;99.90
35894;DHT22;21994;48.204;16.516;2022-07-11T04:22:42;15.20;99.90
35894;DHT22;21994;48.204;16.516;2022-07-11T04:25:08;15.20;99.90
35894;DHT22;21994;48.204;16.516;2022-07-11T04:27:34;15.20;99.90
35894;DHT22;21994;48.204;16.516;2022-07-11T04:30:00;15.10;99.90
35894;DHT22;21994;48.204;16.516;2022-07-11T04:32:26;15.10;99.90
35894;DHT22;21994;48.204;16.516;2022-07-11T04:34:51;15.20;99.90
35894;DHT22;21994;48.204;16.516;2022-07-11T04:37:17;15.20;99.90
35894;DHT22;21994;48.204;16.516;2022-07-11T04:39:43;15.20;99.90
35894;DHT22;21994;48.204;16.516;2022-07-11T04:42:12;15.20;99.90
35894;DHT22;21994;48.204;16.516;2022-07-11T04:44:38;15.30;99.90
35894;DHT22;21994;48.204;16.516;2022-07-11T04:47:04;15.30;99.90
35894;DHT22;21994;48.204;16.516;2022-07-11T04:49:30;15.40;99.90
35894;DHT22;21994;48.204;16.516;2022-07-11T04:51:55;15.40;99.90
35894;DHT22;21994;48.204;16.516;2022-07-11T04:54:23;15.40;99.90
35894;DHT22;21994;48.204;16.516;2022-07-11T04:56:49;15.40;99.90
35894;DHT22;21994;48.204;16.516;2022-07-11T04:59:15;15.50;99.90
35894;DHT22;21994;48.204;16.516;2022-07-11T05:01:41;15.50;99.90
35894;DHT22;21994;48.204;16.516;2022-07-11T05:04:07;15.60;99.90
35894;DHT22;21994;48.204;16.516;2022-07-11T05:06:33;15.70;99.90
35894;DHT22;21994;48.204;16.516;2022-07-11T05:08:59;15.70;99.90
35894;DHT22;21994;48.204;16.516;2022-07-11T05:11:25;15.80;99.90
35894;DHT22;21994;48.204;16.516;2022-07-11T05:13:51;15.90;99.90
35894;DHT22;21994;48.204;16.516;2022-07-11T05:16:17;15.90;99.90
35894;DHT22;21994;48.204;16.516;2022-07-11T05:18:43;16.00;99.90
35894;DHT22;21994;48.204;16.516;2022-07-11T05:21:09;16.10;99.90
35894;DHT22;21994;48.204;16.516;2022-07-11T05:23:35;16.10;99.90
35894;DHT22;21994;48.204;16.516;2022-07-11T05:26:00;16.20;99.90
35894;DHT22;21994;48.204;16.516;2022-07-11T05:28:26;16.20;99.90
35894;DHT22;21994;48.204;16.516;2022-07-11T05:30:52;16.30;99.90
35894;DHT22;21994;48.204;16.516;2022-07-11T05:33:18;16.30;99.90
35894;DHT22;21994;48.204;16.516;2022-07-11T05:35:44;16.40;99.90
35894;DHT22;21994;48.204;16.516;2022-07-11T05:38:10;16.40;99.90
35894;DHT22;21994;48.204;16.516;2022-07-11T05:40:36;16.50;99.90
35894;DHT22;21994;48.204;16.516;2022-07-11T05:43:02;16.60;99.90
35894;DHT22;21994;48.204;16.516;2022-07-11T05:45:28;16.50;99.90
35894;DHT22;21994;48.204;16.516;2022-07-11T05:47:54;16.60;99.90
35894;DHT22;21994;48.204;16.516;2022-07-11T05:50:20;16.70;99.90
35894;DHT22;21994;48.204;16.516;2022-07-11T05:52:46;16.70;99.90
35894;DHT22;21994;48.204;16.516;2022-07-11T05:55:12;16.80;99.90
35894;DHT22;21994;48.204;16.516;2022-07-11T05:57:38;16.80;99.90
35894;DHT22;21994;48.204;16.516;2022-07-11T06:00:04;16.90;99.90
35894;DHT22;21994;48.204;16.516;2022-07-11T06:02:30;17.10;99.90
35894;DHT22;21994;48.204;16.516;2022-07-11T06:04:56;17.10;99.90
35894;DHT22;21994;48.204;16.516;2022-07-11T06:07:22;17.10;99.90
35894;DHT22;21994;48.204;16.516;2022-07-11T06:10:06;17.10;99.90
35894;DHT22;21994;48.204;16.516;2022-07-11T06:12:32;17.20;99.90
35894;DHT22;21994;48.204;16.516;2022-07-11T06:14:58;17.30;99.90
35894;DHT22;21994;48.204;16.516;2022-07-11T06:17:24;17.30;99.90
35894;DHT22;21994;48.204;16.516;2022-07-11T06:19:50;17.30;99.90
35894;DHT22;21994;48.204;16.516;2022-07-11T06:22:16;17.50;99.90
35894;DHT22;21994;48.204;16.516;2022-07-11T06:24:42;17.70;99.70
35894;DHT22;21994;48.204;16.516;2022-07-11T06:27:07;18.00;99.90
35894;DHT22;21994;48.204;16.516;2022-07-11T06:29:33;18.20;99.00
35894;DHT22;21994;48.204;16.516;2022-07-11T06:31:59;18.40;99.20
35894;DHT22;21994;48.204;16.516;2022-07-11T06:34:25;18.60;98.70
35894;DHT22;21994;48.204;16.516;2022-07-11T06:36:51;18.70;99.00
35894;DHT22;21994;48.204;16.516;2022-07-11T06:39:17;18.50;98.50
35894;DHT22;21994;48.204;16.516;2022-07-11T06:41:42;18.50;98.90
35894;DHT22;21994;48.204;16.516;2022-07-11T06:44:08;18.50;98.30
35894;DHT22;21994;48.204;16.516;2022-07-11T06:46:34;18.40;98.10
35894;DHT22;21994;48.204;16.516;2022-07-11T06:49:01;18.50;98.40
35894;DHT22;21994;48.204;16.516;2022-07-11T06:51:27;18.40;98.70
35894;DHT22;21994;48.204;16.516;2022-07-11T06:53:53;18.30;98.70
35894;DHT22;21994;48.204;16.516;2022-07-11T06:56:19;18.20;99.50
35894;DHT22;21994;48.204;16.516;2022-07-11T06:58:44;18.20;99.30
35894;DHT22;21994;48.204;16.516;2022-07-11T07:01:10;18.10;98.70
35894;DHT22;21994;48.204;16.516;2022-07-11T07:03:36;18.10;99.90
35894;DHT22;21994;48.204;16.516;2022-07-11T07:06:03;18.20;98.80
35894;DHT22;21994;48.204;16.516;2022-07-11T07:08:29;18.20;99.30
35894;DHT22;21994;48.204;16.516;2022-07-11T07:10:56;18.20;99.50
35894;DHT22;21994;48.204;16.516;2022-07-11T07:13:22;18.20;99.30
35894;DHT22;21994;48.204;16.516;2022-07-11T07:15:55;18.20;99.30
35894;DHT22;21994;48.204;16.516;2022-07-11T07:18:23;18.30;99.10
35894;DHT22;21994;48.204;16.516;2022-07-11T07:20:50;18.50;99.10
35894;DHT22;21994;48.204;16.516;2022-07-11T07:23:18;18.50;99.20
35894;DHT22;21994;48.204;16.516;2022-07-11T07:25:44;18.70;99.10
35894;DHT22;21994;48.204;16.516;2022-07-11T07:28:10;18.70;98.70
35894;DHT22;21994;48.204;16.516;2022-07-11T07:30:36;18.60;98.50
35894;DHT22;21994;48.204;16.516;2022-07-11T07:33:02;18.50;99.20
35894;DHT22;21994;48.204;16.516;2022-07-11T07:35:28;18.40;98.60
35894;DHT22;21994;48.204;16.516;2022-07-11T07:37:54;18.40;99.30
35894;DHT22;21994;48.204;16.516;2022-07-11T07:40:21;18.50;99.10
35894;DHT22;21994;48.204;16.516;2022-07-11T07:42:47;18.50;98.50
35894;DHT22;21994;48.204;16.516;2022-07-11T07:45:13;18.50;98.70
35894;DHT22;21994;48.204;16.516;2022-07-11T07:47:39;18.60;98.70
35894;DHT22;21994;48.204;16.516;2022-07-11T07:50:05;18.60;99.40
35894;DHT22;21994;48.204;16.516;2022-07-11T07:52:31;18.60;98.70
35894;DHT22;21994;48.204;16.516;2022-07-11T07:54:58;18.60;98.00
35894;DHT22;21994;48.204;16.516;2022-07-11T07:57:24;18.80;98.70
35894;DHT22;21994;48.204;16.516;2022-07-11T07:59:50;19.00;98.30
35894;DHT22;21994;48.204;16.516;2022-07-11T08:02:15;19.10;97.50
35894;DHT22;21994;48.204;16.516;2022-07-11T08:04:41;19.00;98.20
35894;DHT22;21994;48.204;16.516;2022-07-11T08:07:07;19.00;98.90
35894;DHT22;21994;48.204;16.516;2022-07-11T08:09:34;18.90;98.00
35894;DHT22;21994;48.204;16.516;2022-07-11T08:12:00;18.90;98.10
35894;DHT22;21994;48.204;16.516;2022-07-11T08:14:26;18.90;97.90
35894;DHT22;21994;48.204;16.516;2022-07-11T08:16:52;19.00;98.00
35894;DHT22;21994;48.204;16.516;2022-07-11T08:19:18;19.00;97.70
35894;DHT22;21994;48.204;16.516;2022-07-11T08:21:44;18.90;97.90
35894;DHT22;21994;48.204;16.516;2022-07-11T08:24:10;18.90;98.60
35894;DHT22;21994;48.204;16.516;2022-07-11T08:26:36;19.00;99.10
35894;DHT22;21994;48.204;16.516;2022-07-11T08:29:03;18.80;98.00
35894;DHT22;21994;48.204;16.516;2022-07-11T08:31:30;18.70;98.20
35894;DHT22;21994;48.204;16.516;2022-07-11T08:33:56;18.50;98.00
35894;DHT22;21994;48.204;16.516;2022-07-11T08:36:23;18.40;98.10
35894;DHT22;21994;48.204;16.516;2022-07-11T08:38:49;18.30;99.50
35894;DHT22;21994;48.204;16.516;2022-07-11T08:41:15;18.30;98.40
35894;DHT22;21994;48.204;16.516;2022-07-11T08:43:44;18.30;98.70
35894;DHT22;21994;48.204;16.516;2022-07-11T08:46:12;18.30;98.50
35894;DHT22;21994;48.204;16.516;2022-07-11T08:48:41;18.20;98.70
35894;DHT22;21994;48.204;16.516;2022-07-11T08:51:07;18.30;98.80
35894;DHT22;21994;48.204;16.516;2022-07-11T08:53:39;18.50;98.50
35894;DHT22;21994;48.204;16.516;2022-07-11T08:56:12;18.60;98.10
35894;DHT22;21994;48.204;16.516;2022-07-11T08:58:47;18.60;98.40
35894;DHT22;21994;48.204;16.516;2022-07-11T09:01:17;18.70;98.40
35894;DHT22;21994;48.204;16.516;2022-07-11T09:03:45;18.90;97.60
35894;DHT22;21994;48.204;16.516;2022-07-11T09:06:12;18.70;98.60
35894;DHT22;21994;48.204;16.516;2022-07-11T09:08:39;18.60;97.40
35894;DHT22;21994;48.204;16.516;2022-07-11T09:11:05;18.50;96.60
35894;DHT22;21994;48.204;16.516;2022-07-11T09:13:32;18.30;96.60
35894;DHT22;21994;48.204;16.516;2022-07-11T09:16:05;18.30;96.40
35894;DHT22;21994;48.204;16.516;2022-07-11T09:18:36;18.10;97.60
35894;DHT22;21994;48.204;16.516;2022-07-11T09:21:07;17.90;97.90
35894;DHT22;21994;48.204;16.516;2022-07-11T09:23:57;18.00;98.30
35894;DHT22;21994;48.204;16.516;2022-07-11T09:26:45;18.00;98.80
35894;DHT22;21994;48.204;16.516;2022-07-11T09:29:14;18.10;98.50
35894;DHT22;21994;48.204;16.516;2022-07-11T09:31:44;18.20;98.40
35894;DHT22;21994;48.204;16.516;2022-07-11T09:34:20;18.30;98.40
35894;DHT22;21994;48.204;16.516;2022-07-11T09:36:50;18.50;98.80
35894;DHT22;21994;48.204;16.516;2022-07-11T09:39:29;18.80;97.40
35894;DHT22;21994;48.204;16.516;2022-07-11T09:41:56;18.90;97.90
35894;DHT22;21994;48.204;16.516;2022-07-11T09:44:23;19.20;97.80
35894;DHT22;21994;48.204;16.516;2022-07-11T09:46:55;19.80;97.00
35894;DHT22;21994;48.204;16.516;2022-07-11T09:49:38;20.70;95.80
35894;DHT22;21994;48.204;16.516;2022-07-11T09:52:13;21.60;95.30
35894;DHT22;21994;48.204;16.516;2022-07-11T09:54:57;22.50;94.30
35894;DHT22;21994;48.204;16.516;2022-07-11T10:00:02;24.30;91.80
35894;DHT22;21994;48.204;16.516;2022-07-11T10:02:30;25.10;90.20
35894;DHT22;21994;48.204;16.516;2022-07-11T10:04:58;25.40;90.50
35894;DHT22;21994;48.204;16.516;2022-07-11T10:07:25;25.80;90.60
35894;DHT22;21994;48.204;16.516;2022-07-11T10:09:51;26.40;84.80
35894;DHT22;21994;48.204;16.516;2022-07-11T10:12:17;26.20;81.40
35894;DHT22;21994;48.204;16.516;2022-07-11T10:14:46;26.60;79.50
35894;DHT22;21994;48.204;16.516;2022-07-11T10:17:38;26.60;81.50
35894;DHT22;21994;48.204;16.516;2022-07-11T10:20:45;26.70;77.60
35894;DHT22;21994;48.204;16.516;2022-07-11T10:23:59;26.40;77.50
35894;DHT22;21994;48.204;16.516;2022-07-11T10:29:27;26.80;76.30
35894;DHT22;21994;48.204;16.516;2022-07-11T10:32:11;27.20;75.10
35894;DHT22;21994;48.204;16.516;2022-07-11T10:34:38;27.60;74.60
35894;DHT22;21994;48.204;16.516;2022-07-11T10:37:06;27.90;77.50
35894;DHT22;21994;48.204;16.516;2022-07-11T10:39:34;28.50;74.60
35894;DHT22;21994;48.204;16.516;2022-07-11T10:42:04;28.00;69.80
35894;DHT22;21994;48.204;16.516;2022-07-11T10:44:53;27.90;73.50
35894;DHT22;21994;48.204;16.516;2022-07-11T10:47:39;28.10;73.50
35894;DHT22;21994;48.204;16.516;2022-07-11T10:53:14;29.30;66.10
35894;DHT22;21994;48.204;16.516;2022-07-11T10:58:31;29.00;64.20
35894;DHT22;21994;48.204;16.516;2022-07-11T11:01:14;28.10;64.80
35894;DHT22;21994;48.204;16.516;2022-07-11T11:03:42;28.20;65.50
35894;DHT22;21994;48.204;16.516;2022-07-11T11:06:10;27.70;64.60
35894;DHT22;21994;48.204;16.516;2022-07-11T11:11:51;26.20;64.30
35894;DHT22;21994;48.204;16.516;2022-07-11T11:14:23;25.00;65.60
35894;DHT22;21994;48.204;16.516;2022-07-11T11:16:53;23.80;66.40
35894;DHT22;21994;48.204;16.516;2022-07-11T11:22:15;24.00;69.50
35894;DHT22;21994;48.204;16.516;2022-07-11T11:24:43;23.80;68.40
35894;DHT22;21994;48.204;16.516;2022-07-11T11:27:18;23.50;69.80
35894;DHT22;21994;48.204;16.516;2022-07-11T11:29:51;22.90;72.30
35894;DHT22;21994;48.204;16.516;2022-07-11T11:32:19;22.60;72.30
35894;DHT22;21994;48.204;16.516;2022-07-11T11:34:46;22.30;73.20
35894;DHT22;21994;48.204;16.516;2022-07-11T11:37:15;21.80;76.30
35894;DHT22;21994;48.204;16.516;2022-07-11T11:39:42;21.80;77.70
35894;DHT22;21994;48.204;16.516;2022-07-11T11:44:55;23.00;75.40
35894;DHT22;21994;48.204;16.516;2022-07-11T11:47:22;23.20;72.40
35894;DHT22;21994;48.204;16.516;2022-07-11T11:49:49;23.00;73.90
35894;DHT22;21994;48.204;16.516;2022-07-11T11:52:16;23.20;76.80
35894;DHT22;21994;48.204;16.516;2022-07-11T11:54:43;23.30;74.80
35894;DHT22;21994;48.204;16.516;2022-07-11T11:57:11;23.10;71.90
35894;DHT22;21994;48.204;16.516;2022-07-11T11:59:38;22.90;74.50
35894;DHT22;21994;48.204;16.516;2022-07-11T12:02:05;22.80;73.80
35894;DHT22;21994;48.204;16.516;2022-07-11T12:04:33;22.90;74.80
35894;DHT22;21994;48.204;16.516;2022-07-11T12:07:02;22.50;73.50
35894;DHT22;21994;48.204;16.516;2022-07-11T12:09:30;22.10;76.20
35894;DHT22;21994;48.204;16.516;2022-07-11T12:12:23;22.30;78.50
35894;DHT22;21994;48.204;16.516;2022-07-11T12:15:29;22.60;78.90
35894;DHT22;21994;48.204;16.516;2022-07-11T12:18:02;22.70;77.20
35894;DHT22;21994;48.204;16.516;2022-07-11T12:20:36;22.80;77.20
35894;DHT22;21994;48.204;16.516;2022-07-11T12:23:08;22.60;77.90
35894;DHT22;21994;48.204;16.516;2022-07-11T12:25:35;22.80;82.00
35894;DHT22;21994;48.204;16.516;2022-07-11T12:28:03;23.00;76.50
35894;DHT22;21994;48.204;16.516;2022-07-11T12:30:29;23.00;75.80
35894;DHT22;21994;48.204;16.516;2022-07-11T12:33:05;22.80;79.20
35894;DHT22;21994;48.204;16.516;2022-07-11T12:35:33;22.70;76.10
35894;DHT22;21994;48.204;16.516;2022-07-11T12:37:59;22.50;78.20
35894;DHT22;21994;48.204;16.516;2022-07-11T12:40:25;22.30;78.00
35894;DHT22;21994;48.204;16.516;2022-07-11T12:42:51;22.10;77.50
35894;DHT22;21994;48.204;16.516;2022-07-11T12:45:17;22.10;76.60
35894;DHT22;21994;48.204;16.516;2022-07-11T12:47:46;22.10;78.00
35894;DHT22;21994;48.204;16.516;2022-07-11T12:50:22;21.90;76.50
35894;DHT22;21994;48.204;16.516;2022-07-11T12:52:56;22.00;76.30
35894;DHT22;21994;48.204;16.516;2022-07-11T12:55:24;22.40;75.10
35894;DHT22;21994;48.204;16.516;2022-07-11T12:58:06;22.60;76.40
35894;DHT22;21994;48.204;16.516;2022-07-11T13:00:36;23.20;76.60
35894;DHT22;21994;48.204;16.516;2022-07-11T13:03:04;23.60;75.50
35894;DHT22;21994;48.204;16.516;2022-07-11T13:05:51;23.80;74.50
35894;DHT22;21994;48.204;16.516;2022-07-11T13:08:31;23.80;73.60
35894;DHT22;21994;48.204;16.516;2022-07-11T13:11:34;23.90;73.00
35894;DHT22;21994;48.204;16.516;2022-07-11T13:13:59;24.00;71.80
35894;DHT22;21994;48.204;16.516;2022-07-11T13:16:26;23.60;74.00
35894;DHT22;21994;48.204;16.516;2022-07-11T13:18:52;23.40;71.30
35894;DHT22;21994;48.204;16.516;2022-07-11T13:21:19;23.10;74.10
35894;DHT22;21994;48.204;16.516;2022-07-11T13:23:45;23.00;73.20
35894;DHT22;21994;48.204;16.516;2022-07-11T13:26:12;22.90;73.70
35894;DHT22;21994;48.204;16.516;2022-07-11T13:28:38;22.70;74.70
35894;DHT22;21994;48.204;16.516;2022-07-11T13:31:05;22.80;79.70
35894;DHT22;21994;48.204;16.516;2022-07-11T13:33:31;23.30;77.00
35894;DHT22;21994;48.204;16.516;2022-07-11T13:35:58;23.70;74.70
35894;DHT22;21994;48.204;16.516;2022-07-11T13:38:24;23.90;73.20
35894;DHT22;21994;48.204;16.516;2022-07-11T13:40:50;23.70;71.60
35894;DHT22;21994;48.204;16.516;2022-07-11T13:43:16;23.60;73.40
35894;DHT22;21994;48.204;16.516;2022-07-11T13:45:43;23.80;75.50
35894;DHT22;21994;48.204;16.516;2022-07-11T13:48:13;24.40;74.70
35894;DHT22;21994;48.204;16.516;2022-07-11T13:50:39;24.80;73.40
35894;DHT22;21994;48.204;16.516;2022-07-11T13:53:05;24.60;71.30
35894;DHT22;21994;48.204;16.516;2022-07-11T13:55:31;24.40;71.00
35894;DHT22;21994;48.204;16.516;2022-07-11T13:57:58;24.00;70.40
35894;DHT22;21994;48.204;16.516;2022-07-11T14:00:26;23.40;71.60
35894;DHT22;21994;48.204;16.516;2022-07-11T14:02:57;23.10;74.10
35894;DHT22;21994;48.204;16.516;2022-07-11T14:05:23;22.80;73.90
35894;DHT22;21994;48.204;16.516;2022-07-11T14:07:49;22.80;73.50
35894;DHT22;21994;48.204;16.516;2022-07-11T14:10:16;22.50;75.20
35894;DHT22;21994;48.204;16.516;2022-07-11T14:12:42;22.40;75.50
35894;DHT22;21994;48.204;16.516;2022-07-11T14:15:08;22.40;74.20
35894;DHT22;21994;48.204;16.516;2022-07-11T14:17:35;22.40;73.90
35894;DHT22;21994;48.204;16.516;2022-07-11T14:20:02;22.60;75.90
35894;DHT22;21994;48.204;16.516;2022-07-11T14:22:29;23.10;77.50
35894;DHT22;21994;48.204;16.516;2022-07-11T14:24:55;23.40;72.50
35894;DHT22;21994;48.204;16.516;2022-07-11T14:27:22;23.50;73.40
35894;DHT22;21994;48.204;16.516;2022-07-11T14:29:48;23.90;73.50
35894;DHT22;21994;48.204;16.516;2022-07-11T14:32:14;24.20;75.60
35894;DHT22;21994;48.204;16.516;2022-07-11T14:34:41;24.70;70.70
35894;DHT22;21994;48.204;16.516;2022-07-11T14:37:08;24.30;72.30
35894;DHT22;21994;48.204;16.516;2022-07-11T14:39:34;24.60;71.90
35894;DHT22;21994;48.204;16.516;2022-07-11T14:42:01;24.90;72.60
35894;DHT22;21994;48.204;16.516;2022-07-11T14:44:27;25.00;69.20
35894;DHT22;21994;48.204;16.516;2022-07-11T14:46:54;24.40;69.50
35894;DHT22;21994;48.204;16.516;2022-07-11T14:49:20;24.30;71.10
35894;DHT22;21994;48.204;16.516;2022-07-11T14:51:46;23.90;68.50
35894;DHT22;21994;48.204;16.516;2022-07-11T14:54:12;23.70;71.10
35894;DHT22;21994;48.204;16.516;2022-07-11T14:56:38;23.50;71.80
35894;DHT22;21994;48.204;16.516;2022-07-11T14:59:05;23.50;72.90
35894;DHT22;21994;48.204;16.516;2022-07-11T15:01:31;23.40;71.00
35894;DHT22;21994;48.204;16.516;2022-07-11T15:03:58;23.40;73.10
35894;DHT22;21994;48.204;16.516;2022-07-11T15:06:24;23.80;73.70
35894;DHT22;21994;48.204;16.516;2022-07-11T15:09:10;24.40;73.50
35894;DHT22;21994;48.204;16.516;2022-07-11T15:11:54;24.50;70.30
35894;DHT22;21994;48.204;16.516;2022-07-11T15:14:39;24.80;72.40
35894;DHT22;21994;48.204;16.516;2022-07-11T15:17:05;24.60;70.80
35894;DHT22;21994;48.204;16.516;2022-07-11T15:19:31;24.10;71.30
35894;DHT22;21994;48.204;16.516;2022-07-11T15:21:57;23.80;70.00
35894;DHT22;21994;48.204;16.516;2022-07-11T15:24:23;23.50;71.30
35894;DHT22;21994;48.204;16.516;2022-07-11T15:26:49;23.40;71.00
35894;DHT22;21994;48.204;16.516;2022-07-11T15:29:14;23.20;71.80
35894;DHT22;21994;48.204;16.516;2022-07-11T15:31:40;23.20;70.60
35894;DHT22;21994;48.204;16.516;2022-07-11T15:34:06;23.10;74.40
35894;DHT22;21994;48.204;16.516;2022-07-11T15:36:32;23.30;72.70
35894;DHT22;21994;48.204;16.516;2022-07-11T15:38:58;23.50;73.20
35894;DHT22;21994;48.204;16.516;2022-07-11T15:41:24;23.30;73.50
35894;DHT22;21994;48.204;16.516;2022-07-11T15:43:50;23.40;74.20